Ibipora, Brazil
Current Conditions -  °F | °C
As of 6:00 PM on Saturday 27 Dec 2014 (Local Time) from SBLO Reporting Station
Few Clouds Few Clouds  
Wind Chill: 90°   Ceiling: Unl
Heat Index: 95°   Visibility: 6mi
Dew Point: 70°   Wind: 3mph
Humidity: 52%   Direction: 160°SSE
Pressure: 29.94"   Gusts: NA
Location:  23.27°S, 51.05°W
Report Text: SBLO 272000Z 16003KT 9999 FEW040 32/21 Q1014
Loading
Personal Weather Stations






























Interactive Weather Map New forecast layout! Learn more

10-Day Weather Forecast

Advertisements
Track Severe Weather on mobile